createdAt,value
2022-08-17T00:00:34.420Z,52.74
2022-08-17T00:03:10.540Z,52.72
2022-08-17T00:05:42.389Z,52.90
2022-08-17T00:08:11.304Z,52.84
2022-08-17T00:10:39.923Z,52.82
2022-08-17T00:13:09.734Z,52.95
2022-08-17T00:15:39.898Z,53.45
2022-08-17T00:19:02.437Z,53.57
2022-08-17T00:20:57.376Z,53.45
2022-08-17T00:23:26.058Z,53.16
2022-08-17T00:25:54.972Z,53.48
2022-08-17T00:28:23.328Z,53.52
2022-08-17T00:30:54.038Z,53.32
2022-08-17T00:33:25.408Z,53.38
2022-08-17T00:35:54.115Z,53.33
2022-08-17T00:38:23.273Z,53.46
2022-08-17T00:40:55.699Z,53.49
2022-08-17T00:43:30.541Z,53.56
2022-08-17T00:46:01.661Z,53.50
2022-08-17T00:48:30.901Z,53.68
2022-08-17T00:51:08.350Z,53.77
2022-08-17T00:53:41.879Z,53.65
2022-08-17T00:56:13.245Z,53.83
2022-08-17T00:58:42.131Z,53.76
2022-08-17T01:01:21.336Z,53.91
2022-08-17T01:03:51.783Z,53.86
2022-08-17T01:06:20.490Z,54.03
2022-08-17T01:08:57.794Z,54.20
2022-08-17T01:11:26.358Z,54.36
2022-08-17T01:13:54.825Z,54.37
2022-08-17T01:16:27.398Z,54.73
2022-08-17T01:18:58.070Z,54.65
2022-08-17T01:21:33.017Z,54.65
2022-08-17T01:24:02.860Z,54.85
2022-08-17T01:26:34.203Z,54.92
2022-08-17T01:29:04.087Z,54.59
2022-08-17T01:31:41.516Z,54.27
2022-08-17T01:34:11.544Z,54.33
2022-08-17T01:36:42.051Z,54.41
2022-08-17T01:39:19.461Z,54.64
2022-08-17T01:41:49.363Z,54.75
2022-08-17T01:44:17.922Z,54.65
2022-08-17T01:46:45.837Z,54.74
2022-08-17T01:49:13.823Z,54.97
2022-08-17T01:51:42.808Z,55.43
2022-08-17T01:54:16.112Z,55.59
2022-08-17T01:56:47.520Z,55.33
2022-08-17T01:59:16.661Z,55.48
2022-08-17T02:01:45.293Z,55.44
2022-08-17T02:04:13.610Z,55.48
2022-08-17T02:06:47.072Z,55.47
2022-08-17T02:09:26.289Z,55.18
2022-08-17T02:11:59.983Z,55.48
2022-08-17T02:14:57.084Z,55.56
2022-08-17T02:17:25.111Z,55.42
2022-08-17T02:19:53.012Z,55.12
2022-08-17T02:22:26.075Z,55.25
2022-08-17T02:25:01.252Z,55.44
2022-08-17T02:27:30.675Z,55.64
2022-08-17T02:29:58.740Z,55.90
2022-08-17T02:32:28.747Z,55.75
2022-08-17T02:35:01.076Z,56.01
2022-08-17T02:37:30.945Z,55.61
2022-08-17T02:40:00.756Z,55.68
2022-08-17T02:42:31.514Z,55.72
2022-08-17T02:45:01.687Z,55.52
2022-08-17T02:47:30.404Z,55.53
2022-08-17T02:49:58.658Z,55.80
2022-08-17T02:52:42.864Z,55.55
2022-08-17T02:55:23.405Z,55.34
2022-08-17T02:57:54.623Z,55.68
2022-08-17T03:00:25.684Z,55.83
2022-08-17T03:02:58.299Z,55.81
2022-08-17T03:05:30.667Z,55.81
2022-08-17T03:07:58.987Z,55.81
2022-08-17T03:10:29.681Z,55.87
2022-08-17T03:12:57.882Z,55.86
2022-08-17T03:15:28.619Z,55.94
2022-08-17T03:18:03.891Z,56.25
2022-08-17T03:20:33.754Z,56.40
2022-08-17T03:23:03.119Z,56.14
2022-08-17T03:25:36.194Z,56.12
2022-08-17T03:28:05.692Z,56.27
2022-08-17T03:30:37.587Z,56.44
2022-08-17T03:33:09.906Z,56.20
2022-08-17T03:35:44.130Z,56.41
2022-08-17T03:38:15.199Z,56.35
2022-08-17T03:40:57.602Z,56.07
2022-08-17T03:43:30.267Z,56.46
2022-08-17T03:46:33.842Z,56.31
2022-08-17T03:49:25.396Z,56.41
2022-08-17T03:52:17.770Z,56.53
2022-08-17T03:55:04.054Z,56.40
2022-08-17T03:57:33.766Z,56.60
2022-08-17T04:00:01.993Z,56.54
2022-08-17T04:02:59.883Z,56.56
2022-08-17T04:05:30.627Z,56.60
2022-08-17T04:08:06.956Z,56.48
2022-08-17T04:10:41.398Z,56.51
2022-08-17T04:13:14.959Z,56.77
2022-08-17T04:16:00.505Z,57.06
2022-08-17T04:18:29.148Z,57.03
2022-08-17T04:20:57.366Z,57.18
2022-08-17T04:23:39.751Z,56.77
2022-08-17T04:26:07.688Z,56.76
2022-08-17T04:28:37.284Z,56.60
2022-08-17T04:31:05.834Z,56.56
2022-08-17T04:33:34.868Z,56.40
2022-08-17T04:36:05.379Z,56.38
2022-08-17T04:38:35.742Z,56.64
2022-08-17T04:41:19.711Z,57.05
2022-08-17T04:43:54.891Z,57.11
2022-08-17T04:46:26.183Z,57.02
2022-08-17T04:49:00.699Z,57.25
2022-08-17T04:51:32.113Z,57.46
2022-08-17T04:54:02.753Z,57.40
2022-08-17T04:56:33.782Z,57.41
2022-08-17T04:59:14.043Z,57.99
2022-08-17T05:01:43.947Z,57.02
2022-08-17T05:04:33.244Z,57.34
2022-08-17T05:07:03.271Z,57.39
2022-08-17T05:09:33.590Z,57.27
2022-08-17T05:12:02.267Z,57.50
2022-08-17T05:14:39.844Z,57.58
2022-08-17T05:17:11.015Z,56.96
2022-08-17T05:19:39.374Z,56.75
2022-08-17T05:22:07.540Z,56.41
2022-08-17T05:24:43.722Z,56.34
2022-08-17T05:27:22.780Z,56.09
2022-08-17T05:29:54.382Z,55.91
2022-08-17T05:32:39.321Z,54.81
2022-08-17T05:35:08.942Z,53.26
2022-08-17T05:37:36.819Z,52.77
2022-08-17T05:40:11.660Z,52.60
2022-08-17T05:42:40.127Z,51.47
2022-08-17T05:45:11.070Z,51.09
2022-08-17T05:47:40.654Z,50.63
2022-08-17T05:50:27.173Z,51.01
2022-08-17T05:53:09.156Z,51.49
2022-08-17T05:55:50.267Z,51.17
2022-08-17T05:58:26.521Z,50.61
2022-08-17T06:01:15.590Z,51.38
2022-08-17T06:04:16.575Z,52.02
2022-08-17T06:06:55.233Z,52.40
2022-08-17T06:09:36.734Z,52.24
2022-08-17T06:12:37.488Z,53.06
2022-08-17T06:15:26.686Z,52.83
2022-08-17T06:18:00.088Z,53.25
2022-08-17T06:20:45.549Z,54.00
2022-08-17T06:23:28.521Z,54.00
2022-08-17T06:26:05.072Z,53.81
2022-08-17T06:28:38.995Z,53.23
2022-08-17T06:31:12.416Z,55.16
2022-08-17T06:33:46.321Z,52.13
2022-08-17T06:36:29.356Z,54.38
2022-08-17T06:39:21.143Z,52.33
2022-08-17T06:42:02.266Z,52.16
2022-08-17T06:44:51.571Z,52.58
2022-08-17T06:47:28.831Z,52.20
2022-08-17T06:50:20.331Z,52.21
2022-08-17T06:53:00.671Z,52.23
2022-08-17T06:55:47.812Z,52.79
2022-08-17T06:58:21.165Z,52.41
2022-08-17T07:00:58.119Z,52.24
2022-08-17T07:03:33.331Z,52.54
2022-08-17T07:06:15.090Z,52.43
2022-08-17T07:09:05.513Z,52.24
2022-08-17T07:11:50.441Z,51.99
2022-08-17T07:14:32.379Z,52.34
2022-08-17T07:17:04.418Z,52.59
2022-08-17T07:19:45.647Z,52.65
2022-08-17T07:22:55.231Z,52.68
2022-08-17T07:25:36.769Z,52.55
2022-08-17T07:28:07.836Z,52.60
2022-08-17T07:30:45.794Z,52.47
2022-08-17T07:33:20.191Z,52.60
2022-08-17T07:35:52.083Z,52.62
2022-08-17T07:38:24.226Z,52.55
2022-08-17T07:41:04.476Z,52.87
2022-08-17T07:43:35.691Z,52.62
2022-08-17T07:46:34.144Z,52.82
2022-08-17T07:49:20.897Z,52.20
2022-08-17T07:51:59.990Z,51.89
2022-08-17T07:54:44.043Z,51.60
2022-08-17T07:57:34.239Z,51.78
2022-08-17T08:00:31.658Z,51.38
2022-08-17T08:03:26.194Z,51.46
2022-08-17T08:06:00.262Z,50.67
2022-08-17T08:08:44.507Z,50.75
2022-08-17T08:11:29.227Z,50.62
2022-08-17T08:14:28.533Z,50.91
2022-08-17T08:16:59.946Z,50.67
2022-08-17T08:19:32.380Z,50.50
2022-08-17T08:22:10.662Z,49.54
2022-08-17T08:25:05.345Z,49.68
2022-08-17T08:30:38.078Z,49.25
2022-08-17T08:33:25.913Z,49.19
2022-08-17T08:36:05.124Z,48.95
2022-08-17T08:38:50.669Z,48.89
2022-08-17T08:41:33.270Z,48.93
2022-08-17T08:44:15.481Z,49.13
2022-08-17T08:46:57.694Z,49.05
2022-08-17T08:50:04.340Z,49.10
2022-08-17T08:53:01.246Z,48.96
2022-08-17T08:55:55.235Z,49.08
2022-08-17T09:01:30.087Z,48.80
2022-08-17T09:04:29.772Z,48.44
2022-08-17T09:07:09.919Z,48.68
2022-08-17T09:10:08.710Z,48.85
2022-08-17T09:12:52.068Z,48.84
2022-08-17T09:15:27.559Z,49.04
2022-08-17T09:18:59.260Z,47.31
2022-08-17T09:21:00.853Z,48.79
2022-08-17T09:23:35.306Z,48.45
2022-08-17T09:26:12.888Z,48.11
2022-08-17T09:28:59.272Z,47.68
2022-08-17T09:31:50.115Z,47.78
2022-08-17T09:34:33.446Z,47.68
2022-08-17T09:37:15.160Z,48.41
2022-08-17T09:39:48.993Z,48.60
2022-08-17T09:42:30.404Z,48.39
2022-08-17T09:45:08.103Z,48.45
2022-08-17T09:47:46.707Z,48.56
2022-08-17T09:51:03.709Z,48.60
2022-08-17T09:53:15.373Z,48.53
2022-08-17T09:56:18.741Z,47.16
2022-08-17T09:59:09.937Z,48.22
2022-08-17T10:01:45.345Z,47.96
2022-08-17T10:04:37.531Z,47.72
2022-08-17T10:07:17.399Z,47.66
2022-08-17T10:10:00.586Z,47.66
2022-08-17T10:12:49.843Z,46.89
2022-08-17T10:15:29.145Z,47.13
2022-08-17T10:18:39.980Z,47.11
2022-08-17T10:21:31.824Z,47.43
2022-08-17T10:24:25.939Z,45.54
2022-08-17T10:26:57.643Z,44.27
2022-08-17T10:29:47.345Z,46.85
2022-08-17T10:32:26.252Z,46.90
2022-08-17T10:35:09.431Z,46.95
2022-08-17T10:37:50.491Z,46.99
2022-08-17T10:40:39.114Z,46.91
2022-08-17T10:43:29.188Z,46.70
2022-08-17T10:46:31.592Z,47.40
2022-08-17T10:49:26.174Z,46.05
2022-08-17T10:51:59.945Z,46.99
2022-08-17T10:54:49.067Z,46.86
2022-08-17T10:57:40.466Z,45.94
2022-08-17T11:00:14.948Z,46.88
2022-08-17T11:02:53.694Z,46.37
2022-08-17T11:05:54.111Z,46.11
2022-08-17T11:08:52.158Z,43.72
2022-08-17T11:11:39.937Z,46.08
2022-08-17T11:14:41.756Z,45.08
2022-08-17T11:17:49.785Z,45.53
2022-08-17T11:21:23.624Z,42.49
2022-08-17T11:24:32.962Z,45.43
2022-08-17T11:27:12.133Z,46.11
2022-08-17T11:30:01.545Z,46.04
2022-08-17T11:32:38.152Z,46.52
2022-08-17T11:35:47.276Z,46.62
2022-08-17T11:38:25.297Z,46.21
2022-08-17T11:41:20.132Z,45.49
2022-08-17T11:44:15.340Z,44.86
2022-08-17T11:47:15.839Z,45.74
2022-08-17T11:50:40.488Z,45.20
2022-08-17T11:53:29.241Z,46.34
2022-08-17T11:56:06.048Z,45.32
2022-08-17T11:58:38.365Z,45.78
2022-08-17T12:01:13.677Z,46.25
2022-08-17T12:03:54.342Z,45.62
2022-08-17T12:06:56.959Z,45.78
2022-08-17T12:09:31.276Z,45.75
2022-08-17T12:12:13.900Z,45.83
2022-08-17T12:17:40.389Z,40.07
2022-08-17T12:20:29.274Z,45.72
2022-08-17T12:23:10.343Z,45.64
2022-08-17T12:25:44.074Z,45.44
2022-08-17T12:28:23.850Z,44.75
2022-08-17T12:30:53.656Z,44.93
2022-08-17T12:33:28.900Z,45.26
2022-08-17T12:36:27.636Z,44.68
2022-08-17T12:39:13.048Z,45.26
2022-08-17T12:41:44.996Z,45.44
2022-08-17T12:44:24.134Z,45.50
2022-08-17T12:47:00.762Z,45.20
2022-08-17T12:49:35.468Z,44.75
2022-08-17T12:52:19.857Z,45.01
2022-08-17T12:55:03.037Z,44.50
2022-08-17T12:57:43.638Z,44.80
2022-08-17T13:00:41.321Z,44.28
2022-08-17T13:03:19.349Z,43.78
2022-08-17T13:06:06.890Z,42.69
2022-08-17T13:08:40.278Z,43.88
2022-08-17T13:11:10.473Z,44.93
2022-08-17T13:13:41.227Z,45.35
2022-08-17T13:16:17.872Z,42.53
2022-08-17T13:18:51.402Z,44.94
2022-08-17T13:21:30.564Z,43.10
2022-08-17T13:24:05.917Z,44.94
2022-08-17T13:26:38.003Z,45.17
2022-08-17T13:29:08.396Z,45.57
2022-08-17T13:31:52.206Z,44.96
2022-08-17T13:35:12.030Z,43.79
2022-08-17T13:37:33.535Z,44.74
2022-08-17T13:40:21.652Z,45.04
2022-08-17T13:42:59.793Z,44.59
2022-08-17T13:46:13.556Z,43.64
2022-08-17T13:48:44.930Z,44.94
2022-08-17T13:51:35.822Z,43.58
2022-08-17T13:54:24.569Z,44.10
2022-08-17T13:57:07.548Z,44.33
2022-08-17T13:59:54.867Z,44.22
2022-08-17T14:02:29.139Z,44.42
2022-08-17T14:04:57.416Z,40.27
2022-08-17T14:07:33.658Z,44.72
2022-08-17T14:10:17.295Z,44.25
2022-08-17T14:12:46.589Z,40.53
2022-08-17T14:15:17.438Z,44.80
2022-08-17T14:17:45.673Z,45.09
2022-08-17T14:20:14.572Z,45.42
2022-08-17T14:22:46.210Z,45.05
2022-08-17T14:25:17.569Z,45.54
2022-08-17T14:27:52.591Z,45.36
2022-08-17T14:30:25.107Z,45.46
2022-08-17T14:32:53.997Z,45.47
2022-08-17T14:35:24.444Z,45.98
2022-08-17T14:37:53.347Z,45.82
2022-08-17T14:40:24.678Z,46.38
2022-08-17T14:42:56.013Z,46.49
2022-08-17T14:45:30.155Z,46.46
2022-08-17T14:48:02.716Z,47.30
2022-08-17T14:50:30.955Z,48.16
2022-08-17T14:53:01.332Z,49.02
2022-08-17T14:55:29.771Z,49.44
2022-08-17T14:57:59.345Z,49.11
2022-08-17T15:00:28.501Z,49.04
2022-08-17T15:02:58.687Z,49.32
2022-08-17T15:05:30.557Z,48.72
2022-08-17T15:07:58.864Z,48.05
2022-08-17T15:10:27.802Z,48.26
2022-08-17T15:12:56.135Z,48.48
2022-08-17T15:15:25.505Z,49.10
2022-08-17T15:17:55.866Z,49.79
2022-08-17T15:20:28.612Z,50.07
2022-08-17T15:22:58.761Z,50.66
2022-08-17T15:25:28.727Z,50.85
2022-08-17T15:27:56.900Z,50.74
2022-08-17T15:30:27.147Z,51.04
2022-08-17T15:32:55.818Z,50.97
2022-08-17T15:35:29.383Z,51.53
2022-08-17T15:38:06.256Z,52.03
2022-08-17T15:40:36.963Z,51.82
2022-08-17T15:43:11.821Z,51.88
2022-08-17T15:45:41.514Z,52.09
2022-08-17T15:48:10.036Z,52.23
2022-08-17T15:50:38.058Z,51.72
2022-08-17T15:53:05.982Z,52.07
2022-08-17T15:55:34.400Z,51.90
2022-08-17T15:58:02.501Z,51.55
2022-08-17T16:00:31.147Z,51.51
2022-08-17T16:03:45.260Z,51.30
2022-08-17T16:05:55.112Z,51.16
2022-08-17T16:08:23.095Z,50.86
2022-08-17T16:10:51.148Z,50.51
2022-08-17T16:13:20.370Z,50.18
2022-08-17T16:15:57.100Z,50.34
2022-08-17T16:18:30.994Z,49.80
2022-08-17T16:21:19.456Z,51.78
2022-08-17T16:23:47.657Z,49.26
2022-08-17T16:26:15.994Z,49.00
2022-08-17T16:28:43.878Z,48.95
2022-08-17T16:31:12.258Z,49.39
2022-08-17T16:33:42.362Z,49.56
2022-08-17T16:36:31.147Z,49.23
2022-08-17T16:38:59.379Z,49.35
2022-08-17T16:41:45.514Z,49.18
2022-08-17T16:44:15.796Z,49.63
2022-08-17T16:46:45.424Z,50.02
2022-08-17T16:49:36.009Z,50.46
2022-08-17T16:52:06.050Z,51.73
2022-08-17T16:54:35.392Z,51.96
2022-08-17T16:57:05.008Z,51.34
2022-08-17T16:59:40.749Z,51.24
2022-08-17T17:02:11.296Z,51.46
2022-08-17T17:04:50.492Z,51.51
2022-08-17T17:07:34.758Z,51.57
2022-08-17T17:10:06.668Z,51.06
2022-08-17T17:13:03.013Z,50.30
2022-08-17T17:15:28.228Z,50.49
2022-08-17T17:18:06.134Z,50.31
2022-08-17T17:20:43.781Z,50.86
2022-08-17T17:23:33.204Z,50.65
2022-08-17T17:26:11.697Z,50.47
2022-08-17T17:28:50.788Z,50.73
2022-08-17T17:31:23.745Z,50.54
2022-08-17T17:33:57.375Z,50.29
2022-08-17T17:36:30.971Z,50.34
2022-08-17T17:39:01.340Z,51.71
2022-08-17T17:41:34.455Z,50.00
2022-08-17T17:44:08.054Z,49.86
2022-08-17T17:46:41.323Z,50.07
2022-08-17T17:49:14.107Z,50.40
2022-08-17T17:52:07.745Z,49.96
2022-08-17T17:54:49.752Z,50.33
2022-08-17T17:57:27.234Z,50.30
2022-08-17T18:00:08.061Z,50.38
2022-08-17T18:02:51.751Z,50.01
2022-08-17T18:05:40.560Z,50.26
2022-08-17T18:08:19.983Z,50.23
2022-08-17T18:11:08.783Z,50.13
2022-08-17T18:13:54.160Z,50.38
2022-08-17T18:16:22.952Z,50.30
2022-08-17T18:18:52.769Z,50.46
2022-08-17T18:21:23.608Z,50.21
2022-08-17T18:24:08.342Z,50.40
2022-08-17T18:26:45.066Z,50.50
2022-08-17T18:29:22.504Z,50.73
2022-08-17T18:32:10.627Z,50.24
2022-08-17T18:34:48.019Z,50.29
2022-08-17T18:37:32.900Z,50.55
2022-08-17T18:40:26.142Z,50.88
2022-08-17T18:43:03.618Z,50.42
2022-08-17T18:45:35.623Z,50.63
2022-08-17T18:48:04.218Z,50.73
2022-08-17T18:50:42.402Z,50.78
2022-08-17T18:53:42.012Z,50.91
2022-08-17T18:56:30.672Z,51.60
2022-08-17T18:59:14.244Z,51.44
2022-08-17T19:01:53.486Z,51.48
2022-08-17T19:04:38.070Z,51.45
2022-08-17T19:07:10.705Z,51.44
2022-08-17T19:09:43.609Z,51.79
2022-08-17T19:12:27.657Z,51.52
2022-08-17T19:14:57.005Z,54.00
2022-08-17T19:17:30.236Z,51.87
2022-08-17T19:20:03.677Z,51.97
2022-08-17T19:22:43.792Z,52.06
2022-08-17T19:25:16.224Z,52.02
2022-08-17T19:27:57.231Z,52.35
2022-08-17T19:30:29.128Z,52.27
2022-08-17T19:32:58.370Z,52.25
2022-08-17T19:35:35.464Z,52.20
2022-08-17T19:38:12.891Z,52.50
2022-08-17T19:40:54.030Z,52.30
2022-08-17T19:43:31.862Z,52.50
2022-08-17T19:46:08.635Z,52.66
2022-08-17T19:48:48.303Z,52.91
2022-08-17T19:51:24.801Z,52.80
2022-08-17T19:54:09.506Z,53.29
2022-08-17T19:56:47.470Z,53.19
2022-08-17T19:59:35.956Z,53.39
2022-08-17T20:02:17.899Z,53.43
2022-08-17T20:05:03.972Z,53.31
2022-08-17T20:07:43.512Z,52.91
2022-08-17T20:10:19.580Z,53.04
2022-08-17T20:12:54.375Z,53.06
2022-08-17T20:15:30.613Z,53.08
2022-08-17T20:18:01.449Z,52.80
2022-08-17T20:20:36.074Z,52.92
2022-08-17T20:23:11.594Z,52.97
2022-08-17T20:25:46.878Z,52.80
2022-08-17T20:28:28.139Z,53.10
2022-08-17T20:34:36.809Z,53.21
2022-08-17T20:37:38.345Z,53.18
2022-08-17T20:40:31.737Z,53.28
2022-08-17T20:43:00.673Z,53.40
2022-08-17T20:45:54.898Z,53.88
2022-08-17T20:48:37.961Z,53.55
2022-08-17T20:51:27.206Z,54.15
2022-08-17T20:54:28.567Z,54.05
2022-08-17T20:57:00.388Z,53.70
2022-08-17T21:00:14.425Z,54.47
2022-08-17T21:02:44.689Z,53.55
2022-08-17T21:05:34.467Z,53.91
2022-08-17T21:08:14.311Z,53.65
2022-08-17T21:10:45.609Z,53.67
2022-08-17T21:14:09.090Z,55.15
2022-08-17T21:16:54.765Z,54.07
2022-08-17T21:19:49.008Z,53.96
2022-08-17T21:22:38.701Z,53.79
2022-08-17T21:25:19.928Z,54.04
2022-08-17T21:27:58.595Z,54.00
2022-08-17T21:30:47.680Z,54.33
2022-08-17T21:33:25.418Z,54.00
2022-08-17T21:36:16.229Z,54.04
2022-08-17T21:38:58.435Z,54.13
2022-08-17T21:41:31.034Z,53.76
2022-08-17T21:44:05.257Z,53.77
2022-08-17T21:46:38.526Z,53.91
2022-08-17T21:49:13.579Z,53.94
2022-08-17T21:51:46.720Z,54.06
2022-08-17T21:54:28.913Z,54.17
2022-08-17T21:56:57.105Z,54.50
2022-08-17T21:59:28.993Z,54.76
2022-08-17T22:01:58.645Z,55.47
2022-08-17T22:04:29.487Z,55.52
2022-08-17T22:07:00.183Z,55.61
2022-08-17T22:09:33.430Z,55.53
2022-08-17T22:12:05.721Z,55.26
2022-08-17T22:14:52.486Z,55.49
2022-08-17T22:17:25.366Z,55.36
2022-08-17T22:19:56.337Z,55.08
2022-08-17T22:22:58.010Z,55.03
2022-08-17T22:25:29.514Z,55.11
2022-08-17T22:27:59.937Z,55.25
2022-08-17T22:30:32.362Z,55.49
2022-08-17T22:33:02.007Z,55.38
2022-08-17T22:35:43.516Z,55.17
2022-08-17T22:38:38.476Z,55.43
2022-08-17T22:41:42.231Z,55.78
2022-08-17T22:44:27.362Z,55.10
2022-08-17T22:47:01.805Z,55.19
2022-08-17T22:49:33.478Z,55.50
2022-08-17T22:52:08.881Z,55.76
2022-08-17T22:54:54.542Z,56.02
2022-08-17T22:57:51.697Z,56.25
2022-08-17T23:00:34.175Z,56.40
2022-08-17T23:03:10.360Z,56.30
2022-08-17T23:05:39.530Z,56.19
2022-08-17T23:08:15.586Z,56.22
2022-08-17T23:10:45.328Z,56.09
2022-08-17T23:13:16.057Z,56.02
2022-08-17T23:15:44.559Z,56.09
2022-08-17T23:18:12.791Z,55.96
2022-08-17T23:20:43.554Z,56.16
2022-08-17T23:23:14.100Z,56.16
2022-08-17T23:25:44.522Z,55.96
2022-08-17T23:28:14.217Z,56.09
2022-08-17T23:30:46.610Z,56.03
2022-08-17T23:33:21.265Z,55.96
2022-08-17T23:35:51.507Z,55.90
2022-08-17T23:38:19.640Z,55.93
2022-08-17T23:40:47.688Z,55.95
2022-08-17T23:43:24.825Z,55.67
2022-08-17T23:45:55.420Z,56.09
2022-08-17T23:48:35.268Z,56.22
2022-08-17T23:51:08.507Z,56.46
2022-08-17T23:53:42.363Z,56.30
2022-08-17T23:56:11.820Z,56.42
2022-08-17T23:58:44.771Z,56.63
